Time;durP1;ratioP1;P1;durP2;ratioP2;P2;SDS_P1;SDS_P2;PMS_P1;PMS_P2;Temp;Humidity;BMP_temperature;BMP_pressure;BME280_temperature;BME280_humidity;BME280_pressure;Samples;Min_cycle;Max_cycle;Signal;HPM_P1;HPM_P2
2021/04/25 00:00:52;;;;;;;8.62;3.38;;;;;;;7.25;44.94;99605.61;377136;106;1961924;-71
2021/04/25 00:01:58;;;;;;;7.71;3.54;;;;;;;7.26;44.92;99607.26;327996;106;2787006;-72
2021/04/25 00:03:03;;;;;;;8.45;3.41;;;;;;;7.25;44.88;99597.55;358283;106;1963989;-73
2021/04/25 00:04:14;;;;;;;10.77;3.60;;;;;;;7.25;44.94;99596.69;376369;106;1962084;-71
2021/04/25 00:05:19;;;;;;;8.73;3.38;;;;;;;7.26;44.85;99604.57;367815;108;1961928;-71
2021/04/25 00:06:26;;;;;;;10.33;3.99;;;;;;;7.25;44.76;99600.23;369625;108;1961911;-72
2021/04/25 00:07:32;;;;;;;9.72;3.92;;;;;;;7.25;44.77;99602.91;368528;107;1961987;-72
2021/04/25 00:08:38;;;;;;;9.06;3.52;;;;;;;7.24;44.84;99592.34;363782;106;1962017;-71
2021/04/25 00:09:43;;;;;;;8.52;2.96;;;;;;;7.22;45.03;99602.44;369524;107;1963974;-71
2021/04/25 00:10:48;;;;;;;7.82;3.56;;;;;;;7.19;44.91;99598.27;364397;109;1962090;-71
2021/04/25 00:11:55;;;;;;;6.26;3.14;;;;;;;7.14;44.97;99603.36;376967;105;1961950;-71
2021/04/25 00:13:00;;;;;;;7.73;3.39;;;;;;;7.10;45.14;99591.33;371157;107;1962147;-71
2021/04/25 00:14:07;;;;;;;8.14;3.16;;;;;;;7.12;45.02;99605.42;322670;109;2733982;-71
2021/04/25 00:15:16;;;;;;;6.38;2.68;;;;;;;7.08;45.30;99601.42;365621;108;1962988;-71
2021/04/25 00:16:23;;;;;;;7.29;2.97;;;;;;;7.11;45.01;99601.05;365575;108;1962034;-71
2021/04/25 00:17:30;;;;;;;7.89;3.02;;;;;;;7.14;44.98;99597.98;363393;108;1961954;-71
2021/04/25 00:18:36;;;;;;;8.14;3.53;;;;;;;7.15;44.91;99588.09;319053;108;2226977;-71
2021/04/25 00:19:42;;;;;;;8.21;3.56;;;;;;;7.19;44.83;99587.52;364370;108;1961949;-72
2021/04/25 00:20:50;;;;;;;7.90;3.43;;;;;;;7.12;44.99;99591.13;363361;108;1964000;-71
2021/04/25 00:21:55;;;;;;;8.31;3.34;;;;;;;7.12;45.10;99588.44;330213;108;1966965;-72
2021/04/25 00:23:01;;;;;;;9.69;3.84;;;;;;;7.05;45.43;99594.56;357641;108;1962830;-71
2021/04/25 00:24:07;;;;;;;11.75;3.91;;;;;;;7.10;45.03;99580.59;361743;109;1961978;-70
2021/04/25 00:25:14;;;;;;;8.93;3.81;;;;;;;7.09;45.04;99586.96;364112;108;1962055;-71
2021/04/25 00:26:21;;;;;;;9.87;4.09;;;;;;;7.11;45.05;99589.47;360249;108;1960755;-72
2021/04/25 00:27:28;;;;;;;7.78;2.91;;;;;;;7.08;44.94;99585.30;365100;108;1961979;-71
2021/04/25 00:28:33;;;;;;;10.22;3.81;;;;;;;7.11;44.92;99581.41;364286;108;1961967;-72
2021/04/25 00:29:39;;;;;;;10.27;3.54;;;;;;;7.09;44.92;99584.27;315261;108;2826030;-72
2021/04/25 00:30:45;;;;;;;6.92;3.41;;;;;;;7.08;45.07;99582.63;361432;108;1961986;-71
2021/04/25 00:31:50;;;;;;;9.17;3.60;;;;;;;7.03;45.09;99575.11;364632;108;1963022;-72
2021/04/25 00:32:56;;;;;;;9.73;3.78;;;;;;;7.08;45.00;99581.80;365022;108;1961985;-71
2021/04/25 00:34:01;;;;;;;11.88;4.28;;;;;;;7.04;45.13;99589.40;365243;108;1961970;-71
2021/04/25 00:35:08;;;;;;;9.65;3.37;;;;;;;7.04;45.00;99576.80;363580;108;1961962;-71
2021/04/25 00:36:14;;;;;;;8.25;3.48;;;;;;;7.04;45.15;99579.48;357333;107;1961821;-71
2021/04/25 00:37:19;;;;;;;8.50;3.23;;;;;;;6.96;45.11;99568.83;359703;110;1961965;-70
2021/04/25 00:38:25;;;;;;;11.21;4.21;;;;;;;7.01;45.13;99585.23;362712;108;1960835;-72
2021/04/25 00:39:30;;;;;;;10.48;3.77;;;;;;;6.99;45.24;99586.43;362812;108;1961858;-72
2021/04/25 00:40:36;;;;;;;9.00;3.74;;;;;;;6.98;45.24;99582.06;363159;108;1961943;-71
2021/04/25 00:41:42;;;;;;;12.37;4.40;;;;;;;6.99;45.19;99581.06;324499;108;2685029;-71
2021/04/25 00:42:48;;;;;;;10.17;3.96;;;;;;;6.96;45.32;99576.03;335813;108;1962040;-71
2021/04/25 00:43:54;;;;;;;10.68;4.12;;;;;;;6.95;45.35;99585.95;362711;108;1962009;-71
2021/04/25 00:45:03;;;;;;;9.91;4.04;;;;;;;6.94;45.32;99578.09;364378;108;1961965;-71
2021/04/25 00:46:09;;;;;;;10.91;4.31;;;;;;;6.94;45.42;99570.86;363408;108;1962063;-72
2021/04/25 00:47:14;;;;;;;12.14;4.14;;;;;;;6.94;45.40;99572.72;363805;108;1961918;-71
2021/04/25 00:48:22;;;;;;;8.89;4.24;;;;;;;6.89;45.32;99565.21;363324;108;1961999;-71
2021/04/25 00:49:28;;;;;;;9.68;3.95;;;;;;;6.79;45.61;99568.16;362214;109;1961923;-71
2021/04/25 00:50:35;;;;;;;9.55;4.81;;;;;;;6.77;45.78;99569.36;364355;108;1966022;-71
2021/04/25 00:51:41;;;;;;;9.44;3.35;;;;;;;6.77;45.71;99569.36;315126;108;2835921;-71
2021/04/25 00:52:47;;;;;;;8.91;3.84;;;;;;;6.76;45.70;99573.07;345683;108;1961927;-71
2021/04/25 00:53:55;;;;;;;10.84;3.98;;;;;;;6.76;45.79;99562.33;365011;108;1961951;-71
2021/04/25 00:55:00;;;;;;;9.92;4.38;;;;;;;6.76;45.66;99567.70;334374;108;2460989;-71
2021/04/25 00:56:09;;;;;;;11.14;3.96;;;;;;;6.72;45.82;99563.70;363476;108;1961999;-71
2021/04/25 00:57:16;;;;;;;8.78;4.09;;;;;;;6.68;45.91;99559.73;358221;110;1961943;-72
2021/04/25 00:58:22;;;;;;;8.84;4.25;;;;;;;6.67;45.88;99561.59;357248;109;1960876;-71
2021/04/25 00:59:28;;;;;;;9.79;3.74;;;;;;;6.65;46.02;99560.11;361588;109;1961959;-72
2021/04/25 01:00:36;;;;;;;9.61;3.79;;;;;;;6.67;45.99;99560.73;361124;109;1961944;-71
2021/04/25 01:01:41;;;;;;;8.89;4.04;;;;;;;6.67;45.86;99556.22;359642;110;1960982;-71
2021/04/25 01:02:47;;;;;;;8.16;3.86;;;;;;;6.63;46.13;99554.08;359752;110;1963963;-70
2021/04/25 01:03:55;;;;;;;10.52;4.07;;;;;;;6.59;46.04;99554.45;361023;109;1961907;-70
2021/04/25 01:05:01;;;;;;;8.02;3.85;;;;;;;6.57;46.30;99553.80;361311;109;1963937;-70
2021/04/25 01:06:07;;;;;;;9.12;4.02;;;;;;;6.59;46.26;99558.99;359875;111;1961947;-71
2021/04/25 01:07:12;;;;;;;11.34;4.27;;;;;;;6.63;46.03;99551.39;360949;110;1965142;-72
2021/04/25 01:08:18;;;;;;;7.45;3.38;;;;;;;6.68;45.90;99552.51;316693;110;2769002;-70
2021/04/25 01:09:24;;;;;;;11.94;4.19;;;;;;;6.63;45.99;99546.03;348903;110;1961996;-72
2021/04/25 01:10:31;;;;;;;9.14;4.03;;;;;;;6.69;45.83;99554.16;359548;110;1961795;-70
2021/04/25 01:11:37;;;;;;;12.24;4.53;;;;;;;6.70;45.76;99545.11;358719;110;1962032;-70
2021/04/25 01:12:44;;;;;;;11.22;4.51;;;;;;;6.71;46.03;99551.31;317362;111;2667963;-70
2021/04/25 01:13:51;;;;;;;8.72;3.77;;;;;;;6.67;45.97;99558.05;359674;109;1962042;-72
2021/04/25 01:14:57;;;;;;;8.56;3.57;;;;;;;6.70;45.75;99550.48;299159;112;2187637;-71
2021/04/25 01:16:03;;;;;;;9.07;3.92;;;;;;;6.61;45.95;99546.20;328111;110;1961973;-71
2021/04/25 01:17:08;;;;;;;8.43;3.61;;;;;;;6.59;45.91;99545.57;360313;109;1964891;-71
2021/04/25 01:18:13;;;;;;;10.16;4.40;;;;;;;6.56;46.03;99548.59;360969;110;1961893;-72
2021/04/25 01:19:18;;;;;;;8.66;3.69;;;;;;;6.58;46.07;99542.03;354918;112;1961935;-71
2021/04/25 01:20:26;;;;;;;8.71;3.58;;;;;;;6.60;45.96;99544.55;359086;109;1961940;-70
2021/04/25 01:21:31;;;;;;;6.21;2.84;;;;;;;6.61;46.14;99546.20;302064;109;2218056;-70
2021/04/25 01:22:37;;;;;;;8.79;3.54;;;;;;;6.58;45.99;99544.71;333704;110;1962000;-70
2021/04/25 01:23:42;;;;;;;10.91;3.99;;;;;;;6.60;45.98;99547.23;358145;109;1962001;-70
2021/04/25 01:24:47;;;;;;;10.08;3.73;;;;;;;6.63;45.98;99538.80;360049;109;1961058;-71
2021/04/25 01:25:53;;;;;;;9.71;4.06;;;;;;;6.56;46.14;99544.09;359922;109;1961959;-71
2021/04/25 01:26:59;;;;;;;6.31;3.01;;;;;;;6.58;46.02;99536.66;360072;109;1963016;-71
2021/04/25 01:28:05;;;;;;;9.73;3.82;;;;;;;6.61;45.97;99543.52;320113;110;2671996;-70
2021/04/25 01:29:11;;;;;;;9.42;3.73;;;;;;;6.59;46.04;99542.89;342679;109;1962029;-71
2021/04/25 01:30:21;;;;;;;8.56;3.09;;;;;;;6.64;45.95;99543.14;361001;110;1961945;-70
2021/04/25 01:31:27;;;;;;;9.42;4.23;;;;;;;6.60;46.00;99540.00;360904;109;1964014;-72
2021/04/25 01:32:34;;;;;;;9.76;3.66;;;;;;;6.62;45.91;99537.15;360222;110;1963038;-70
2021/04/25 01:33:40;;;;;;;8.26;3.37;;;;;;;6.62;45.87;99545.20;335444;111;1962011;-70
2021/04/25 01:34:45;;;;;;;7.16;3.41;;;;;;;6.61;46.06;99538.15;359377;110;1961979;-70
2021/04/25 01:35:52;;;;;;;9.00;4.07;;;;;;;6.63;45.90;99540.66;361040;110;1960820;-70
2021/04/25 01:36:58;;;;;;;9.06;3.48;;;;;;;6.66;45.87;99532.23;356634;107;1960896;-72
2021/04/25 01:38:04;;;;;;;8.76;4.06;;;;;;;6.71;45.75;99537.89;339946;110;2239929;-72
2021/04/25 01:39:09;;;;;;;8.21;3.24;;;;;;;6.70;45.90;99534.38;335960;110;1961837;-70
2021/04/25 01:40:15;;;;;;;8.51;3.74;;;;;;;6.67;45.78;99528.52;363966;110;1962913;-71
2021/04/25 01:41:21;;;;;;;9.67;3.69;;;;;;;6.67;45.92;99531.20;364048;109;1960879;-71
2021/04/25 01:42:27;;;;;;;9.21;3.83;;;;;;;6.67;45.92;99536.58;365659;110;1961807;-71
2021/04/25 01:43:34;;;;;;;10.02;4.20;;;;;;;6.57;46.13;99526.13;328312;110;2579959;-72
2021/04/25 01:44:39;;;;;;;8.06;3.67;;;;;;;6.58;46.01;99530.47;365101;110;1961818;-71
2021/04/25 01:45:44;;;;;;;7.93;3.18;;;;;;;6.58;46.01;99525.09;364362;110;1961921;-72
2021/04/25 01:46:50;;;;;;;8.24;3.32;;;;;;;6.53;46.14;99520.27;363262;110;1960882;-71
2021/04/25 01:47:59;;;;;;;8.96;3.89;;;;;;;6.58;46.14;99527.78;363540;110;1962001;-71
2021/04/25 01:49:04;;;;;;;9.38;3.27;;;;;;;6.58;46.11;99527.78;364418;110;1962035;-71
2021/04/25 01:50:13;;;;;;;8.27;3.39;;;;;;;6.56;46.19;99527.13;314851;110;2843040;-71
2021/04/25 01:51:19;;;;;;;9.92;3.23;;;;;;;6.58;46.13;99517.05;362584;110;1961951;-71
2021/04/25 01:52:24;;;;;;;9.02;4.67;;;;;;;6.61;46.07;99516.67;361541;110;1961946;-71
2021/04/25 01:53:30;;;;;;;9.67;4.35;;;;;;;6.62;46.03;99523.73;362642;110;1963030;-72
2021/04/25 01:54:36;;;;;;;9.94;3.67;;;;;;;6.59;46.12;99521.42;326756;110;2605086;-71
2021/04/25 01:55:42;;;;;;;8.77;3.73;;;;;;;6.62;46.03;99523.73;343705;109;1961962;-70
2021/04/25 01:56:48;;;;;;;9.08;3.30;;;;;;;6.64;45.97;99510.11;363502;109;1961904;-70
2021/04/25 01:57:54;;;;;;;8.31;3.96;;;;;;;6.65;45.93;99511.80;362087;110;1964986;-71
2021/04/25 01:58:59;;;;;;;9.08;4.11;;;;;;;6.64;46.05;99508.25;362891;110;1961950;-71
2021/04/25 02:00:09;;;;;;;7.56;3.13;;;;;;;6.68;45.85;99512.25;335735;110;2402983;-71
2021/04/25 02:01:16;;;;;;;8.82;3.89;;;;;;;6.67;45.90;99515.96;363860;110;1961889;-71
2021/04/25 02:02:22;;;;;;;8.21;3.91;;;;;;;6.63;46.15;99522.70;355356;112;1969962;-71
2021/04/25 02:03:29;;;;;;;9.20;3.97;;;;;;;6.67;46.02;99515.10;358227;111;1961981;-71
2021/04/25 02:04:35;;;;;;;11.86;4.33;;;;;;;6.80;45.76;99520.66;318827;110;2771040;-71
2021/04/25 02:05:41;;;;;;;9.58;5.12;;;;;;;6.89;45.45;99518.73;356477;110;1962978;-71
2021/04/25 02:06:47;;;;;;;7.38;3.34;;;;;;;6.90;45.44;99515.02;363087;110;1961920;-72
2021/04/25 02:07:53;;;;;;;8.28;3.30;;;;;;;6.79;45.65;99511.78;361403;110;1961989;-72
2021/04/25 02:08:59;;;;;;;8.24;3.90;;;;;;;6.87;45.49;99510.03;330066;110;2906011;-71
2021/04/25 02:10:07;;;;;;;7.29;3.56;;;;;;;6.89;45.41;99516.05;345175;110;1964948;-71
2021/04/25 02:11:13;;;;;;;11.14;3.77;;;;;;;6.88;45.46;99507.17;363584;110;1961996;-71
2021/04/25 02:12:18;;;;;;;12.10;4.34;;;;;;;6.91;45.39;99505.97;311597;110;2148606;-72
2021/04/25 02:13:25;;;;;;;8.73;3.98;;;;;;;6.94;45.32;99514.47;340749;110;1962020;-71
2021/04/25 02:14:30;;;;;;;9.75;4.24;;;;;;;6.96;45.30;99509.75;364016;110;1963048;-71
2021/04/25 02:15:36;;;;;;;9.37;4.36;;;;;;;6.99;45.24;99512.06;363356;109;1962977;-70
2021/04/25 02:16:43;;;;;;;9.84;4.33;;;;;;;7.00;45.17;99512.89;342499;110;1961836;-71
2021/04/25 02:17:57;;;;;;;10.38;4.41;;;;;;;7.07;45.11;99505.76;354995;111;1963914;-70
2021/04/25 02:19:03;;;;;;;9.39;4.22;;;;;;;7.15;45.01;99505.66;307564;110;2184812;-72
2021/04/25 02:20:15;;;;;;;6.84;3.43;;;;;;;7.21;44.88;99504.89;363523;110;1961984;-71
2021/04/25 02:21:22;;;;;;;;;;;;;;;7.17;44.96;99508.13;358207;110;2959011;-70
2021/04/25 02:22:27;;;;;;;9.59;3.60;;;;;;;7.07;45.15;99499.56;335611;110;1961019;-71
2021/04/25 02:23:32;;;;;;;11.93;3.93;;;;;;;7.10;45.08;99508.06;363077;109;1964023;-71
2021/04/25 02:24:38;;;;;;;9.19;3.92;;;;;;;7.10;45.06;99510.75;363641;110;1962044;-71
2021/04/25 02:25:43;;;;;;;9.26;3.68;;;;;;;7.10;45.07;99513.44;363084;108;1962997;-70
2021/04/25 02:26:48;;;;;;;10.58;5.54;;;;;;;7.12;45.08;99505.17;363989;110;1962076;-71
2021/04/25 02:27:56;;;;;;;8.71;4.43;;;;;;;7.11;45.07;99504.34;362727;111;1962000;-71
2021/04/25 02:29:01;;;;;;;9.11;3.94;;;;;;;7.14;44.97;99503.97;334031;110;1961906;-71
2021/04/25 02:30:10;;;;;;;8.59;3.71;;;;;;;7.25;44.78;99503.51;362352;110;1963022;-71
2021/04/25 02:31:16;;;;;;;7.04;3.41;;;;;;;7.21;44.79;99509.44;306046;108;2221736;-71
2021/04/25 02:32:21;;;;;;;9.12;3.77;;;;;;;7.17;44.80;99510.81;367584;108;1961944;-71
2021/04/25 02:33:27;;;;;;;8.63;4.14;;;;;;;7.21;44.80;99504.89;369017;108;1961947;-70
2021/04/25 02:34:32;;;;;;;10.05;4.02;;;;;;;7.25;44.70;99497.28;365690;108;1964966;-71
2021/04/25 02:35:39;;;;;;;11.07;4.03;;;;;;;7.28;44.64;99496.92;371805;107;1961936;-71
2021/04/25 02:36:45;;;;;;;9.46;3.95;;;;;;;7.32;44.60;99502.74;313317;107;2191225;-71
2021/04/25 02:37:52;;;;;;;9.94;3.69;;;;;;;7.31;44.58;99501.09;366809;108;1962907;-71
2021/04/25 02:38:58;;;;;;;10.51;3.71;;;;;;;7.32;44.60;99497.37;371523;107;1962998;-70
2021/04/25 02:40:06;;;;;;;8.90;3.25;;;;;;;7.38;44.46;99496.60;330182;107;2702924;-71
2021/04/25 02:41:11;;;;;;;8.02;3.42;;;;;;;7.42;44.41;99504.11;373316;106;1962978;-70
2021/04/25 02:42:18;;;;;;;13.08;5.14;;;;;;;7.42;44.42;99501.42;373335;107;1962909;-71
2021/04/25 02:43:23;;;;;;;7.29;3.47;;;;;;;7.41;44.43;99497.08;337216;107;2543954;-71
2021/04/25 02:44:39;;;;;;;9.02;4.23;;;;;;;7.42;44.42;99496.05;342347;107;1961908;-71
2021/04/25 02:45:45;;;;;;;8.55;4.08;;;;;;;7.45;44.36;99501.03;348259;114;1961961;-71
2021/04/25 02:46:52;;;;;;;8.60;4.16;;;;;;;7.53;44.25;99491.20;348823;114;1961963;-71
2021/04/25 02:48:04;;;;;;;8.22;3.78;;;;;;;7.51;44.23;99496.75;331836;114;2224962;-71
2021/04/25 02:49:13;;;;;;;9.63;3.88;;;;;;;7.44;44.32;99490.49;303756;113;2840014;-71
2021/04/25 02:50:22;;;;;;;11.32;3.93;;;;;;;7.43;44.32;99499.56;352983;112;1962023;-70
2021/04/25 02:51:28;;;;;;;9.80;4.08;;;;;;;7.46;44.28;99493.80;337505;112;1961977;-71
2021/04/25 02:52:33;;;;;;;9.66;4.03;;;;;;;7.52;44.16;99500.30;354651;112;1962016;-71
2021/04/25 02:53:39;;;;;;;10.06;4.30;;;;;;;7.52;44.15;99490.37;351863;107;1960846;-72
2021/04/25 02:54:44;;;;;;;8.76;4.55;;;;;;;7.57;44.09;99485.26;347967;115;1962946;-70
2021/04/25 02:55:49;;;;;;;12.16;4.56;;;;;;;7.57;44.09;99484.40;347525;115;1962076;-71
2021/04/25 02:56:55;;;;;;;8.59;3.91;;;;;;;7.59;44.09;99493.94;342693;117;1961762;-71
2021/04/25 02:58:01;;;;;;;9.39;4.62;;;;;;;7.60;44.05;99490.25;310580;114;2705925;-70
2021/04/25 02:59:07;;;;;;;9.66;3.79;;;;;;;7.59;44.07;99493.94;326660;114;1961940;-70
2021/04/25 03:00:17;;;;;;;8.56;3.68;;;;;;;7.54;44.17;99498.23;348690;114;1961983;-71
2021/04/25 03:01:24;;;;;;;9.19;4.62;;;;;;;7.62;44.01;99492.73;348398;114;1962052;-71
2021/04/25 03:02:30;;;;;;;9.12;4.44;;;;;;;7.66;43.98;99499.40;349184;114;1962033;-71
2021/04/25 03:03:35;;;;;;;8.50;4.06;;;;;;;7.73;43.85;99488.70;325475;113;2236955;-71
2021/04/25 03:04:41;;;;;;;9.72;4.58;;;;;;;7.77;43.75;99485.44;316375;117;1961944;-71
2021/04/25 03:05:49;;;;;;;12.57;4.72;;;;;;;7.78;43.69;99489.81;340673;114;1965100;-70
2021/04/25 03:06:54;;;;;;;9.18;4.12;;;;;;;7.78;43.73;99486.27;341208;117;1961924;-70
2021/04/25 03:08:00;;;;;;;9.23;3.89;;;;;;;7.80;43.68;99501.19;307984;114;2750995;-70
2021/04/25 03:09:05;;;;;;;9.03;4.09;;;;;;;7.71;43.79;99499.66;332411;114;1961924;-71
2021/04/25 03:10:12;;;;;;;10.18;3.97;;;;;;;7.69;43.80;99504.39;347697;113;1962010;-71
2021/04/25 03:11:18;;;;;;;10.13;4.54;;;;;;;7.65;43.87;99493.20;349540;114;1961961;-72
2021/04/25 03:12:24;;;;;;;11.17;4.56;;;;;;;7.74;43.75;99493.90;314659;114;2628950;-71
2021/04/25 03:13:29;;;;;;;10.42;4.59;;;;;;;7.75;43.64;99494.72;334126;114;1962927;-71
2021/04/25 03:14:35;;;;;;;11.39;4.78;;;;;;;7.79;43.56;99491.47;349295;114;1962015;-71
2021/04/25 03:15:40;;;;;;;8.94;4.07;;;;;;;8.12;43.41;99489.09;342579;117;1961923;-71
2021/04/25 03:16:46;;;;;;;12.82;4.56;;;;;;;8.28;42.73;99492.50;350981;114;1962019;-71
2021/04/25 03:17:51;;;;;;;8.89;3.73;;;;;;;8.30;42.51;99488.58;348413;114;1962768;-70
2021/04/25 03:18:57;;;;;;;10.32;4.59;;;;;;;8.25;42.57;99490.20;349549;113;1961979;-71
2021/04/25 03:20:06;;;;;;;9.72;4.54;;;;;;;8.22;42.56;99495.98;316497;114;2557013;-72
2021/04/25 03:21:12;;;;;;;10.56;4.24;;;;;;;8.19;42.68;99491.81;349603;115;1961981;-71
2021/04/25 03:22:19;;;;;;;10.47;4.84;;;;;;;8.19;42.62;99480.23;349819;114;1961996;-71
2021/04/25 03:23:25;;;;;;;9.19;4.13;;;;;;;7.95;42.93;99493.06;347127;114;1963943;-71
2021/04/25 03:24:31;;;;;;;12.59;4.57;;;;;;;7.76;43.41;99489.16;349596;113;1962013;-70
2021/04/25 03:25:38;;;;;;;8.15;4.22;;;;;;;7.67;43.65;99487.61;310761;113;2045366;-70
2021/04/25 03:26:44;;;;;;;9.46;4.18;;;;;;;7.63;43.77;99481.80;349765;113;1961968;-72
2021/04/25 03:27:50;;;;;;;7.69;4.23;;;;;;;7.57;43.89;99496.01;348886;114;1961973;-71
2021/04/25 03:28:56;;;;;;;9.33;3.74;;;;;;;7.57;43.92;99489.78;349679;113;1961960;-71
2021/04/25 03:30:03;;;;;;;9.32;4.00;;;;;;;7.52;44.02;99487.69;298664;116;2764943;-71
2021/04/25 03:31:08;;;;;;;9.92;4.52;;;;;;;7.52;44.06;99492.23;347878;115;1962220;-70
2021/04/25 03:32:14;;;;;;;7.92;3.66;;;;;;;7.51;44.16;99496.75;349214;115;1961984;-71
2021/04/25 03:33:19;;;;;;;11.14;4.74;;;;;;;7.48;44.15;99492.59;347876;114;1960899;-70
2021/04/25 03:34:25;;;;;;;9.81;3.94;;;;;;;7.51;44.11;99498.61;348234;115;1961998;-71
2021/04/25 03:35:32;;;;;;;8.44;4.31;;;;;;;7.47;44.18;99495.48;307890;114;2745934;-71
2021/04/25 03:36:39;;;;;;;9.36;3.77;;;;;;;7.47;44.23;99490.11;349802;113;1962070;-72
2021/04/25 03:37:45;;;;;;;9.60;4.76;;;;;;;7.45;44.28;99489.45;348281;114;1962938;-71
2021/04/25 03:38:50;;;;;;;10.12;3.86;;;;;;;7.41;44.49;99491.70;294622;114;2188551;-72
2021/04/25 03:39:56;;;;;;;9.49;4.55;;;;;;;7.43;44.45;99497.70;337896;114;1961919;-71
2021/04/25 03:41:01;;;;;;;10.94;3.90;;;;;;;7.40;44.50;99498.08;349954;115;1961917;-71
2021/04/25 03:42:06;;;;;;;9.84;4.83;;;;;;;7.42;44.44;99492.53;352486;105;1960687;-70
2021/04/25 03:43:12;;;;;;;9.42;4.38;;;;;;;7.44;44.48;99493.18;369455;107;1961978;-72
2021/04/25 03:44:17;;;;;;;9.28;4.07;;;;;;;7.47;44.40;99492.80;371008;103;1960687;-71
2021/04/25 03:45:24;;;;;;;10.45;4.24;;;;;;;7.49;44.38;99488.07;364727;109;1961007;-71
2021/04/25 03:46:30;;;;;;;9.34;3.78;;;;;;;7.53;44.39;99489.34;347245;109;1961984;-72
2021/04/25 03:47:35;;;;;;;9.01;4.09;;;;;;;7.52;44.39;99474.24;366233;109;1960974;-71
2021/04/25 03:48:40;;;;;;;10.25;3.69;;;;;;;7.58;44.35;99489.59;364754;109;1962004;-71
2021/04/25 03:49:46;;;;;;;10.86;4.39;;;;;;;7.60;44.30;99492.11;355679;112;1962916;-71
2021/04/25 03:50:52;;;;;;;10.40;4.98;;;;;;;7.55;44.38;99499.91;356066;113;1961963;-71
2021/04/25 03:51:58;;;;;;;10.12;4.44;;;;;;;7.61;44.25;99494.59;325583;113;2537800;-72
2021/04/25 03:53:04;;;;;;;10.33;4.35;;;;;;;7.59;44.31;99502.00;330996;113;1961958;-72
2021/04/25 03:54:09;;;;;;;9.08;4.09;;;;;;;7.61;44.43;99488.39;352117;113;1961955;-71
2021/04/25 03:55:17;;;;;;;7.54;3.88;;;;;;;7.65;44.21;99484.30;353189;113;1961979;-71
2021/04/25 03:56:23;;;;;;;8.73;4.17;;;;;;;7.67;44.18;99482.23;324488;113;2539971;-71
2021/04/25 03:57:28;;;;;;;8.54;3.79;;;;;;;7.73;44.17;99496.77;340257;111;1964079;-71
2021/04/25 03:58:34;;;;;;;9.27;5.04;;;;;;;7.73;44.06;99484.17;356325;111;1961936;-71
2021/04/25 03:59:39;;;;;;;8.74;4.11;;;;;;;7.75;44.00;99481.28;358125;112;1961947;-70
2021/04/25 04:00:45;;;;;;;10.28;3.48;;;;;;;7.78;43.89;99489.81;358737;113;1962025;-71
2021/04/25 04:01:51;;;;;;;8.58;4.43;;;;;;;7.83;43.90;99483.84;357117;113;1960879;-71
2021/04/25 04:02:57;;;;;;;8.93;4.47;;;;;;;7.79;43.93;99482.58;317235;113;2686015;-72
2021/04/25 04:04:03;;;;;;;9.19;3.82;;;;;;;7.87;43.80;99482.44;352032;113;1964011;-71
2021/04/25 04:05:09;;;;;;;9.12;3.97;;;;;;;7.83;43.79;99479.31;357551;112;1961918;-71
2021/04/25 04:06:15;;;;;;;7.97;3.77;;;;;;;7.78;43.90;99481.75;358886;113;1962017;-71
2021/04/25 04:07:21;;;;;;;8.14;3.68;;;;;;;7.79;43.93;99479.88;311183;111;2801026;-71
2021/04/25 04:08:26;;;;;;;10.06;4.26;;;;;;;7.77;43.94;99480.06;336472;113;1962959;-71
2021/04/25 04:09:32;;;;;;;9.89;4.06;;;;;;;7.87;43.80;99475.20;354035;113;1961964;-71
2021/04/25 04:10:48;;;;;;;7.75;3.49;;;;;;;7.90;43.71;99477.50;357935;113;1961977;-71
2021/04/25 04:11:54;;;;;;;9.07;3.45;;;;;;;7.95;43.61;99474.23;351749;113;1963961;-71
2021/04/25 04:13:00;;;;;;;9.32;3.30;;;;;;;7.93;43.59;99477.11;307568;111;2804962;-71
2021/04/25 04:14:06;;;;;;;9.04;4.09;;;;;;;7.92;43.50;99478.14;344271;113;1961962;-71
2021/04/25 04:15:12;;;;;;;8.16;4.29;;;;;;;7.92;43.49;99477.31;353257;113;1962986;-71
2021/04/25 04:16:20;;;;;;;11.76;3.82;;;;;;;8.00;43.38;99477.18;315372;113;2610062;-70
2021/04/25 04:17:25;;;;;;;8.51;3.70;;;;;;;8.09;43.24;99475.17;324836;113;1960874;-71
2021/04/25 04:18:31;;;;;;;10.19;4.08;;;;;;;8.08;43.26;99481.59;349419;114;1965024;-71
2021/04/25 04:19:36;;;;;;;10.49;3.87;;;;;;;8.13;43.13;99476.46;351184;113;1962011;-71
2021/04/25 04:20:42;;;;;;;8.92;3.71;;;;;;;8.16;43.08;99478.76;350673;113;1962027;-72
2021/04/25 04:21:58;;;;;;;10.45;4.18;;;;;;;8.22;42.96;99477.97;349959;113;1961972;-71
2021/04/25 04:23:04;;;;;;;8.00;4.00;;;;;;;8.26;42.87;99473.88;323698;112;2520201;-71
2021/04/25 04:24:09;;;;;;;8.95;4.08;;;;;;;8.24;42.86;99481.30;331392;111;1964922;-71
2021/04/25 04:25:15;;;;;;;9.23;4.22;;;;;;;8.29;42.82;99481.55;349193;113;1960950;-71
2021/04/25 04:26:22;;;;;;;9.03;4.06;;;;;;;8.30;42.75;99477.82;349171;113;1961981;-70
2021/04/25 04:27:28;;;;;;;8.63;3.97;;;;;;;8.32;42.63;99485.71;333360;113;2916117;-70
2021/04/25 04:28:34;;;;;;;9.56;4.57;;;;;;;8.30;42.71;99483.20;325486;113;1961983;-72
2021/04/25 04:29:39;;;;;;;10.64;4.63;;;;;;;8.48;42.49;99477.36;345598;113;1962022;-70
2021/04/25 04:30:47;;;;;;;9.09;3.69;;;;;;;8.63;42.10;99479.12;350198;113;1962008;-73
2021/04/25 04:31:53;;;;;;;8.67;4.14;;;;;;;8.54;42.23;99475.73;326422;113;2225036;-71
2021/04/25 04:33:01;;;;;;;7.83;3.93;;;;;;;8.65;42.18;99468.97;350176;113;1960795;-72
2021/04/25 04:34:20;;;;;;;8.91;4.06;;;;;;;8.65;42.20;99468.97;349056;113;1962099;-71
2021/04/25 04:35:25;;;;;;;9.04;4.19;;;;;;;8.61;42.08;99471.23;350525;113;1961995;-71
2021/04/25 04:36:32;;;;;;;8.28;4.66;;;;;;;8.65;42.21;99474.35;321482;114;1962958;-71
2021/04/25 04:37:38;;;;;;;9.27;4.18;;;;;;;8.63;42.16;99474.57;341437;113;1961995;-71
2021/04/25 04:38:43;;;;;;;11.34;4.52;;;;;;;8.64;42.23;99486.16;352311;113;1962004;-71
2021/04/25 04:39:49;;;;;;;7.19;3.72;;;;;;;8.65;42.13;99483.25;350222;113;1962082;-71
2021/04/25 04:40:56;;;;;;;8.81;3.65;;;;;;;8.70;42.05;99486.19;349475;113;1962010;-71
2021/04/25 04:42:01;;;;;;;8.74;3.71;;;;;;;8.76;41.81;99489.98;331722;114;2280028;-71
2021/04/25 04:43:07;;;;;;;9.02;3.77;;;;;;;8.76;41.85;99498.06;322988;113;1962003;-72
2021/04/25 04:44:12;;;;;;;8.15;3.76;;;;;;;8.70;41.94;99483.50;347087;113;1964060;-71
2021/04/25 04:45:17;;;;;;;8.80;4.18;;;;;;;8.71;42.03;99479.79;348070;106;1961926;-71
2021/04/25 04:46:22;;;;;;;8.19;4.54;;;;;;;8.80;41.91;99485.84;366063;108;1961978;-72
2021/04/25 04:47:28;;;;;;;7.89;3.93;;;;;;;8.84;41.95;99486.27;363981;109;1961891;-72
2021/04/25 04:48:33;;;;;;;10.00;4.11;;;;;;;8.85;42.05;99486.08;359985;110;1962065;-72
2021/04/25 04:49:40;;;;;;;11.43;4.81;;;;;;;8.91;41.91;99487.14;350596;111;1962048;-71
2021/04/25 04:50:47;;;;;;;13.04;4.79;;;;;;;8.91;41.95;99484.44;356478;111;1963092;-72
2021/04/25 04:51:53;;;;;;;8.43;4.07;;;;;;;8.95;41.89;99486.55;344962;115;1961906;-72
2021/04/25 04:52:58;;;;;;;10.96;4.57;;;;;;;8.98;41.79;99494.22;350594;115;1961954;-71
2021/04/25 04:54:04;;;;;;;8.86;4.27;;;;;;;8.99;41.90;99485.09;348522;114;1962052;-71
2021/04/25 04:55:10;;;;;;;9.86;4.20;;;;;;;9.03;41.93;99483.68;321000;111;2588977;-71
2021/04/25 04:56:16;;;;;;;11.47;5.17;;;;;;;9.09;41.91;99489.30;357905;111;1961982;-70
2021/04/25 04:57:22;;;;;;;10.35;5.16;;;;;;;9.05;41.99;99480.80;356783;111;1961976;-71
2021/04/25 04:58:28;;;;;;;9.93;4.67;;;;;;;9.12;41.93;99486.20;350769;113;1961953;-70
2021/04/25 04:59:35;;;;;;;9.67;4.13;;;;;;;9.12;41.85;99495.11;322662;113;2573963;-71
2021/04/25 05:00:40;;;;;;;8.94;4.57;;;;;;;9.14;41.84;99490.36;350478;114;1965411;-70
2021/04/25 05:01:46;;;;;;;10.38;5.03;;;;;;;9.16;41.86;99490.17;347736;116;1961991;-71
2021/04/25 05:02:51;;;;;;;11.37;5.04;;;;;;;9.13;41.95;99493.23;365030;109;1960945;-71
2021/04/25 05:03:57;;;;;;;9.74;4.98;;;;;;;9.11;42.04;99495.33;364166;109;1961936;-71
2021/04/25 05:05:03;;;;;;;9.64;4.65;;;;;;;9.20;41.96;99496.80;363394;109;1962036;-71
2021/04/25 05:06:10;;;;;;;11.07;5.33;;;;;;;9.21;41.95;99506.58;364275;109;1962002;-71
2021/04/25 05:07:16;;;;;;;11.97;4.91;;;;;;;9.23;42.01;99504.48;365304;109;1961925;-71
2021/04/25 05:08:21;;;;;;;11.38;5.69;;;;;;;9.18;42.14;99499.72;362710;109;1962410;-72